createdAt,value
2023-03-29T00:00:49.911Z,-1.78
2023-03-29T00:03:54.098Z,-1.70
2023-03-29T00:06:56.431Z,-1.89
2023-03-29T00:09:58.726Z,-1.93
2023-03-29T00:13:01.435Z,-1.92
2023-03-29T00:16:03.752Z,-2.00
2023-03-29T00:19:06.190Z,-1.65
2023-03-29T00:22:08.388Z,-1.48
2023-03-29T00:25:11.859Z,-1.17
2023-03-29T00:28:14.794Z,-1.10
2023-03-29T00:31:18.234Z,-0.90
2023-03-29T00:34:21.337Z,-0.86
2023-03-29T00:37:26.856Z,-0.81
2023-03-29T00:40:29.024Z,-0.78
2023-03-29T00:43:31.233Z,-0.63
2023-03-29T00:46:35.005Z,-0.44
2023-03-29T00:49:37.644Z,-0.55
2023-03-29T00:52:41.648Z,-0.58
2023-03-29T00:55:43.765Z,-0.66
2023-03-29T00:59:19.163Z,-0.71
2023-03-29T01:02:23.051Z,-0.83
2023-03-29T01:05:37.722Z,-0.88
2023-03-29T01:08:43.762Z,-0.84
2023-03-29T01:11:51.256Z,-0.77
2023-03-29T01:15:06.819Z,-0.66
2023-03-29T01:18:09.643Z,-1.08
2023-03-29T01:21:23.610Z,-1.40
2023-03-29T01:24:28.822Z,-1.79
2023-03-29T01:27:37.956Z,-1.84
2023-03-29T01:30:48.771Z,-1.61
2023-03-29T01:33:56.383Z,-1.72
2023-03-29T01:37:13.511Z,-1.87
2023-03-29T01:40:15.955Z,-2.05
2023-03-29T01:43:27.233Z,-2.24
2023-03-29T01:46:38.654Z,-2.58
2023-03-29T01:50:00.951Z,-2.44
2023-03-29T01:53:08.302Z,-2.56
2023-03-29T01:56:17.552Z,-2.42
2023-03-29T01:59:28.918Z,-2.23
2023-03-29T02:02:32.018Z,-2.35
2023-03-29T02:05:35.832Z,-2.41
2023-03-29T02:08:41.892Z,-2.28
2023-03-29T02:11:44.936Z,-2.46
2023-03-29T02:14:47.188Z,-2.08
2023-03-29T02:17:50.944Z,-1.88
2023-03-29T02:20:54.697Z,-1.71
2023-03-29T02:23:59.665Z,-1.95
2023-03-29T02:27:01.900Z,-2.23
2023-03-29T02:30:06.271Z,-2.33
2023-03-29T02:33:14.041Z,-2.87
2023-03-29T02:36:18.727Z,-3.05
2023-03-29T02:39:21.388Z,-3.16
2023-03-29T02:42:24.712Z,-3.22
2023-03-29T02:45:28.003Z,-3.38
2023-03-29T02:48:31.457Z,-3.46
2023-03-29T02:51:34.405Z,-3.52
2023-03-29T02:54:43.021Z,-3.41
2023-03-29T02:57:45.565Z,-3.35
2023-03-29T03:00:48.841Z,-3.32
2023-03-29T03:03:52.052Z,-3.30
2023-03-29T03:06:54.475Z,-3.52
2023-03-29T03:09:57.786Z,-3.23
2023-03-29T03:12:59.966Z,-3.66
2023-03-29T03:16:03.224Z,-3.61
2023-03-29T03:19:05.634Z,-3.58
2023-03-29T03:22:10.113Z,-3.64
2023-03-29T03:25:13.022Z,-3.52
2023-03-29T03:28:15.232Z,-3.62
2023-03-29T03:31:17.629Z,-3.57
2023-03-29T03:34:19.855Z,-3.55
2023-03-29T03:37:22.628Z,-3.61
2023-03-29T03:40:26.583Z,-3.77
2023-03-29T03:43:30.331Z,-3.58
2023-03-29T03:46:32.508Z,-3.55
2023-03-29T03:49:34.762Z,-3.22
2023-03-29T03:52:37.050Z,-3.14
2023-03-29T03:55:39.705Z,-3.37
2023-03-29T03:58:41.970Z,-3.33
2023-03-29T04:01:44.221Z,-3.43
2023-03-29T04:04:46.631Z,-3.28
2023-03-29T04:07:48.880Z,-3.14
2023-03-29T04:10:55.230Z,-3.45
2023-03-29T04:13:57.753Z,-3.48
2023-03-29T04:16:59.901Z,-3.54
2023-03-29T04:20:07.029Z,-3.37
2023-03-29T04:23:09.251Z,-3.44
2023-03-29T04:26:12.180Z,-3.77
2023-03-29T04:29:14.352Z,-3.79
2023-03-29T04:32:16.540Z,-3.84
2023-03-29T04:35:18.820Z,-4.06
2023-03-29T04:38:23.532Z,-4.02
2023-03-29T04:41:27.416Z,-3.97
2023-03-29T04:44:29.664Z,-3.84
2023-03-29T04:47:32.757Z,-3.80
2023-03-29T04:50:36.583Z,-3.69
2023-03-29T04:53:38.795Z,-3.76
2023-03-29T04:56:41.135Z,-3.34
2023-03-29T04:59:43.378Z,-3.40
2023-03-29T05:02:45.815Z,-3.46
2023-03-29T05:05:48.172Z,-3.41
2023-03-29T05:08:51.291Z,-2.69
2023-03-29T05:11:53.461Z,-1.76
2023-03-29T05:14:55.727Z,-1.50
2023-03-29T05:17:59.019Z,-1.33
2023-03-29T05:21:01.473Z,-1.25
2023-03-29T05:24:04.709Z,-1.61
2023-03-29T05:27:06.898Z,-1.65
2023-03-29T05:30:09.693Z,-1.91
2023-03-29T05:33:12.113Z,-2.02
2023-03-29T05:36:15.878Z,-1.70
2023-03-29T05:39:18.376Z,-1.63
2023-03-29T05:42:22.603Z,-1.12
2023-03-29T05:45:25.069Z,-1.02
2023-03-29T05:48:27.429Z,-0.86
2023-03-29T05:51:29.646Z,-0.61
2023-03-29T05:54:31.814Z,-0.29
2023-03-29T05:57:40.598Z,-0.13
2023-03-29T06:00:44.055Z,0.28
2023-03-29T06:03:47.389Z,0.38
2023-03-29T06:06:49.835Z,0.52
2023-03-29T06:09:52.040Z,0.71
2023-03-29T06:12:54.547Z,0.55
2023-03-29T06:15:56.769Z,0.81
2023-03-29T06:18:59.277Z,0.61
2023-03-29T06:22:01.463Z,0.77
2023-03-29T06:25:05.078Z,0.75
2023-03-29T06:28:07.715Z,0.81
2023-03-29T06:31:10.314Z,0.86
2023-03-29T06:34:13.798Z,0.98
2023-03-29T06:37:16.067Z,1.04
2023-03-29T06:40:24.751Z,1.18
2023-03-29T06:43:27.282Z,1.15
2023-03-29T06:46:29.615Z,1.32
2023-03-29T06:49:31.797Z,1.26
2023-03-29T06:52:34.075Z,1.29
2023-03-29T06:55:36.395Z,1.38
2023-03-29T06:58:39.177Z,1.62
2023-03-29T07:01:42.805Z,1.92
2023-03-29T07:04:46.139Z,2.10
2023-03-29T07:08:00.197Z,2.26
2023-03-29T07:11:03.687Z,2.28
2023-03-29T07:14:06.226Z,2.56
2023-03-29T07:17:08.599Z,2.52
2023-03-29T07:20:14.178Z,2.18
2023-03-29T07:23:17.095Z,2.40
2023-03-29T07:26:28.897Z,2.68
2023-03-29T07:29:32.487Z,2.87
2023-03-29T07:32:36.333Z,2.66
2023-03-29T07:35:39.799Z,2.87
2023-03-29T07:38:42.109Z,2.49
2023-03-29T07:41:44.324Z,2.60
2023-03-29T07:44:48.456Z,2.70
2023-03-29T07:47:54.977Z,2.85
2023-03-29T07:50:57.530Z,3.14
2023-03-29T07:53:59.956Z,3.18
2023-03-29T07:57:02.263Z,2.97
2023-03-29T08:00:15.054Z,3.25
2023-03-29T08:03:17.811Z,3.66
2023-03-29T08:06:20.101Z,3.78
2023-03-29T08:09:22.432Z,4.23
2023-03-29T08:12:25.132Z,4.07
2023-03-29T08:15:28.058Z,4.08
2023-03-29T08:18:32.841Z,4.17
2023-03-29T08:21:37.170Z,4.64
2023-03-29T08:24:39.470Z,4.55
2023-03-29T08:27:42.613Z,5.14
2023-03-29T08:30:44.968Z,5.66
2023-03-29T08:33:47.261Z,5.53
2023-03-29T08:40:49.608Z,6.32
2023-03-29T08:44:20.557Z,6.59
2023-03-29T08:47:39.986Z,6.41
2023-03-29T08:50:52.782Z,5.61
2023-03-29T08:54:11.481Z,6.15
2023-03-29T08:57:21.196Z,5.41
2023-03-29T09:00:57.996Z,5.43
2023-03-29T09:04:03.300Z,5.49
2023-03-29T09:07:09.157Z,5.92
2023-03-29T09:10:18.358Z,5.87
2023-03-29T09:13:32.799Z,5.98
2023-03-29T09:17:01.171Z,5.56
2023-03-29T09:20:14.481Z,5.68
2023-03-29T09:23:25.913Z,6.59
2023-03-29T09:26:37.482Z,6.65
2023-03-29T09:29:39.507Z,6.31
2023-03-29T09:33:01.953Z,6.12
2023-03-29T09:36:10.001Z,6.83
2023-03-29T09:39:14.992Z,5.98
2023-03-29T09:42:17.968Z,5.94
2023-03-29T09:45:20.238Z,6.38
2023-03-29T09:48:23.268Z,6.29
2023-03-29T09:51:28.037Z,6.37
2023-03-29T09:54:30.374Z,6.18
2023-03-29T09:57:32.559Z,7.37
2023-03-29T10:00:34.777Z,7.01
2023-03-29T10:03:37.127Z,6.83
2023-03-29T10:06:49.311Z,7.01
2023-03-29T10:09:52.164Z,7.80
2023-03-29T10:12:59.167Z,8.22
2023-03-29T10:16:04.964Z,7.99
2023-03-29T10:19:24.046Z,7.97
2023-03-29T10:22:28.577Z,8.66
2023-03-29T10:25:32.947Z,8.65
2023-03-29T10:28:36.650Z,8.02
2023-03-29T10:33:00.060Z,8.11
2023-03-29T10:36:05.379Z,8.25
2023-03-29T10:39:09.986Z,8.46
2023-03-29T10:42:17.549Z,8.56
2023-03-29T10:45:31.742Z,8.46
2023-03-29T10:48:35.557Z,8.46
2023-03-29T10:51:37.736Z,8.49
2023-03-29T10:54:39.977Z,8.12
2023-03-29T10:57:57.554Z,8.61
2023-03-29T11:01:00.011Z,8.25
2023-03-29T11:04:40.786Z,8.32
2023-03-29T11:07:48.722Z,8.52
2023-03-29T11:11:14.193Z,7.69
2023-03-29T11:14:34.652Z,7.93
2023-03-29T11:17:58.591Z,7.43
2023-03-29T11:21:29.144Z,6.84
2023-03-29T11:24:46.889Z,7.63
2023-03-29T11:28:26.378Z,8.07
2023-03-29T11:31:31.337Z,8.14
2023-03-29T11:35:06.489Z,8.44
2023-03-29T11:38:35.331Z,8.46
2023-03-29T11:41:43.970Z,7.78
2023-03-29T11:44:48.430Z,7.60
2023-03-29T11:47:52.972Z,8.00
2023-03-29T11:51:00.876Z,8.11
2023-03-29T11:54:19.501Z,8.33
2023-03-29T11:57:46.682Z,8.55
2023-03-29T12:00:52.837Z,7.82
2023-03-29T12:04:02.682Z,7.80
2023-03-29T12:07:12.095Z,8.02
2023-03-29T12:10:23.531Z,8.51
2023-03-29T12:13:33.058Z,8.76
2023-03-29T12:16:44.108Z,8.84
2023-03-29T12:20:10.886Z,8.91
2023-03-29T12:23:14.965Z,8.83
2023-03-29T12:26:42.488Z,8.90
2023-03-29T12:29:53.738Z,9.03
2023-03-29T12:33:02.282Z,9.09
2023-03-29T12:36:32.606Z,8.93
2023-03-29T12:39:36.776Z,8.89
2023-03-29T12:42:52.734Z,8.92
2023-03-29T12:45:58.377Z,9.15
2023-03-29T12:49:09.588Z,9.15
2023-03-29T12:52:27.174Z,9.35
2023-03-29T12:55:42.347Z,8.83
2023-03-29T12:59:05.653Z,8.50
2023-03-29T13:02:14.161Z,8.76
2023-03-29T13:05:34.704Z,8.89
2023-03-29T13:08:46.009Z,9.14
2023-03-29T13:12:04.131Z,9.54
2023-03-29T13:15:22.054Z,9.21
2023-03-29T13:18:39.423Z,8.87
2023-03-29T13:21:49.736Z,8.72
2023-03-29T13:25:17.925Z,8.89
2023-03-29T13:28:58.499Z,8.78
2023-03-29T13:32:17.723Z,9.13
2023-03-29T13:35:31.984Z,9.32
2023-03-29T13:38:53.731Z,9.31
2023-03-29T13:42:21.648Z,9.51
2023-03-29T13:45:29.348Z,9.59
2023-03-29T13:48:33.716Z,9.71
2023-03-29T13:51:41.241Z,9.76
2023-03-29T13:54:53.351Z,9.71
2023-03-29T13:58:06.477Z,9.40
2023-03-29T14:01:17.755Z,9.30
2023-03-29T14:04:43.944Z,9.33
2023-03-29T14:07:51.630Z,9.05
2023-03-29T14:10:54.553Z,8.63
2023-03-29T14:13:59.079Z,8.94
2023-03-29T14:17:01.898Z,8.97
2023-03-29T14:20:09.098Z,9.30
2023-03-29T14:23:14.342Z,9.01
2023-03-29T14:26:20.569Z,9.21
2023-03-29T14:29:25.397Z,9.41
2023-03-29T14:32:30.022Z,9.08
2023-03-29T14:35:33.230Z,8.76
2023-03-29T14:38:36.153Z,9.03
2023-03-29T14:41:39.154Z,9.13
2023-03-29T14:44:42.398Z,9.17
2023-03-29T14:47:46.043Z,8.94
2023-03-29T14:50:48.483Z,8.55
2023-03-29T14:53:50.676Z,8.52
2023-03-29T14:56:53.112Z,8.55
2023-03-29T14:59:59.744Z,8.61
2023-03-29T15:03:02.849Z,8.66
2023-03-29T15:06:05.804Z,8.66
2023-03-29T15:09:16.340Z,8.64
2023-03-29T15:12:18.539Z,8.63
2023-03-29T15:15:21.344Z,8.48
2023-03-29T15:18:35.116Z,8.34
2023-03-29T15:21:38.554Z,8.39
2023-03-29T15:24:48.089Z,8.44
2023-03-29T15:27:57.968Z,8.40
2023-03-29T15:31:11.647Z,8.49
2023-03-29T15:34:25.380Z,8.35
2023-03-29T15:37:28.106Z,8.25
2023-03-29T15:40:30.331Z,8.33
2023-03-29T15:43:32.580Z,8.28
2023-03-29T15:46:34.826Z,8.25
2023-03-29T15:49:37.042Z,8.31
2023-03-29T15:52:39.639Z,8.25
2023-03-29T15:55:44.814Z,8.25
2023-03-29T15:58:47.395Z,8.31
2023-03-29T16:01:49.734Z,8.01
2023-03-29T16:04:51.946Z,7.80
2023-03-29T16:07:54.125Z,7.98
2023-03-29T16:10:56.318Z,7.83
2023-03-29T16:13:58.786Z,7.87
2023-03-29T16:17:02.804Z,7.73
2023-03-29T16:20:05.884Z,7.66
2023-03-29T16:23:11.987Z,7.60
2023-03-29T16:26:19.281Z,7.58
2023-03-29T16:29:21.531Z,7.64
2023-03-29T16:32:23.765Z,7.61
2023-03-29T16:35:31.342Z,7.74
2023-03-29T16:38:34.183Z,7.65
2023-03-29T16:41:37.058Z,7.61
2023-03-29T16:44:39.348Z,7.48
2023-03-29T16:47:44.779Z,7.44
2023-03-29T16:50:50.713Z,7.35
2023-03-29T16:53:53.098Z,7.31
2023-03-29T16:56:55.482Z,7.19
2023-03-29T16:59:57.764Z,7.24
2023-03-29T17:03:03.189Z,7.16
2023-03-29T17:06:06.788Z,7.12
2023-03-29T17:09:09.750Z,7.09
2023-03-29T17:12:12.476Z,7.06
2023-03-29T17:15:15.112Z,6.82
2023-03-29T17:18:17.299Z,6.78
2023-03-29T17:21:19.707Z,6.75
2023-03-29T17:24:21.906Z,6.71
2023-03-29T17:27:24.089Z,6.72
2023-03-29T17:30:26.281Z,6.68
2023-03-29T17:33:28.692Z,6.65
2023-03-29T17:36:33.841Z,6.62
2023-03-29T17:39:37.846Z,6.69
2023-03-29T17:42:41.407Z,6.57
2023-03-29T17:45:43.814Z,6.58
2023-03-29T17:48:50.980Z,6.65
2023-03-29T17:51:53.752Z,6.62
2023-03-29T17:54:55.967Z,6.62
2023-03-29T17:57:58.425Z,6.60
2023-03-29T18:01:07.831Z,6.63
2023-03-29T18:04:10.516Z,6.91
2023-03-29T18:07:13.148Z,6.71
2023-03-29T18:10:17.212Z,6.97
2023-03-29T18:13:25.318Z,6.86
2023-03-29T18:16:28.132Z,6.88
2023-03-29T18:19:30.862Z,6.98
2023-03-29T18:22:34.263Z,7.01
2023-03-29T18:25:36.838Z,6.79
2023-03-29T18:28:40.308Z,6.55
2023-03-29T18:31:43.637Z,6.61
2023-03-29T18:34:46.127Z,6.54
2023-03-29T18:37:48.695Z,6.23
2023-03-29T18:40:51.540Z,6.17
2023-03-29T18:43:57.734Z,6.03
2023-03-29T18:46:59.909Z,5.98
2023-03-29T18:50:02.808Z,6.23
2023-03-29T18:53:05.313Z,6.15
2023-03-29T18:56:08.095Z,6.08
2023-03-29T18:59:10.327Z,6.02
2023-03-29T19:02:12.827Z,6.05
2023-03-29T19:05:15.250Z,6.15
2023-03-29T19:08:17.402Z,6.04
2023-03-29T19:11:20.001Z,6.07
2023-03-29T19:14:25.291Z,5.94
2023-03-29T19:17:28.179Z,5.81
2023-03-29T19:20:35.014Z,5.77
2023-03-29T19:23:39.307Z,5.88
2023-03-29T19:26:43.548Z,5.75
2023-03-29T19:29:48.106Z,5.72
2023-03-29T19:32:51.518Z,5.71
2023-03-29T19:35:54.065Z,5.66
2023-03-29T19:38:57.988Z,5.69
2023-03-29T19:42:00.174Z,5.63
2023-03-29T19:45:03.939Z,5.78
2023-03-29T19:48:07.132Z,5.94
2023-03-29T19:51:09.334Z,5.95
2023-03-29T19:54:14.686Z,5.98
2023-03-29T19:57:17.761Z,5.64
2023-03-29T20:00:24.454Z,5.35
2023-03-29T20:03:29.883Z,5.26
2023-03-29T20:06:32.387Z,5.31
2023-03-29T20:09:34.802Z,5.54
2023-03-29T20:12:37.162Z,5.72
2023-03-29T20:15:39.790Z,5.75
2023-03-29T20:18:44.777Z,5.67
2023-03-29T20:21:50.660Z,5.88
2023-03-29T20:24:53.201Z,5.82
2023-03-29T20:27:57.286Z,5.86
2023-03-29T20:31:03.902Z,6.09
2023-03-29T20:34:06.283Z,5.68
2023-03-29T20:37:08.575Z,5.51
2023-03-29T20:40:11.368Z,5.18
2023-03-29T20:43:18.311Z,5.54
2023-03-29T20:46:23.892Z,5.94
2023-03-29T20:49:26.376Z,5.98
2023-03-29T20:52:28.778Z,5.45
2023-03-29T20:55:33.176Z,5.21
2023-03-29T20:58:35.373Z,5.09
2023-03-29T21:01:40.752Z,5.09
2023-03-29T21:04:44.066Z,5.13
2023-03-29T21:07:48.025Z,5.20
2023-03-29T21:10:51.688Z,5.54
2023-03-29T21:13:54.067Z,5.49
2023-03-29T21:16:56.701Z,5.62
2023-03-29T21:19:59.105Z,5.26
2023-03-29T21:23:01.447Z,5.18
2023-03-29T21:26:04.623Z,5.20
2023-03-29T21:29:07.295Z,5.23
2023-03-29T21:32:10.788Z,5.31
2023-03-29T21:35:13.165Z,5.48
2023-03-29T21:38:15.974Z,5.54
2023-03-29T21:41:18.849Z,5.43
2023-03-29T21:44:21.281Z,5.61
2023-03-29T21:47:23.518Z,5.59
2023-03-29T21:50:26.177Z,5.66
2023-03-29T21:53:28.588Z,5.70
2023-03-29T21:56:30.831Z,5.61
2023-03-29T21:59:33.187Z,5.90
2023-03-29T22:02:35.697Z,5.91
2023-03-29T22:05:38.119Z,5.85
2023-03-29T22:08:40.696Z,5.84
2023-03-29T22:11:44.670Z,5.92
2023-03-29T22:14:47.238Z,6.10
2023-03-29T22:17:50.474Z,6.03
2023-03-29T22:20:52.770Z,5.95
2023-03-29T22:23:56.393Z,5.92
2023-03-29T22:26:58.730Z,5.95
2023-03-29T22:30:00.921Z,6.05
2023-03-29T22:33:03.247Z,5.97
2023-03-29T22:36:14.089Z,6.02
2023-03-29T22:39:16.381Z,6.06
2023-03-29T22:42:18.957Z,5.99
2023-03-29T22:45:21.215Z,6.08
2023-03-29T22:48:23.390Z,6.02
2023-03-29T22:51:25.658Z,5.99
2023-03-29T22:54:30.691Z,5.96
2023-03-29T22:57:33.122Z,5.91
2023-03-29T23:00:35.755Z,5.74
2023-03-29T23:03:38.087Z,5.63
2023-03-29T23:06:40.402Z,5.64
2023-03-29T23:09:42.589Z,5.73
2023-03-29T23:12:44.884Z,5.74
2023-03-29T23:15:48.588Z,5.84
2023-03-29T23:18:50.930Z,5.66
2023-03-29T23:21:53.138Z,5.59
2023-03-29T23:24:55.265Z,5.45
2023-03-29T23:27:57.538Z,5.28
2023-03-29T23:31:05.725Z,5.33
2023-03-29T23:34:09.208Z,5.38
2023-03-29T23:37:11.392Z,5.33
2023-03-29T23:40:14.110Z,5.35
2023-03-29T23:43:17.016Z,5.26
2023-03-29T23:46:19.224Z,5.20
2023-03-29T23:49:22.793Z,5.19
2023-03-29T23:52:24.979Z,5.11
2023-03-29T23:55:27.310Z,5.01
2023-03-29T23:58:30.980Z,4.92
